sensor_id;sensor_type;location;lat;lon;timestamp;P1;durP1;ratioP1;P2;durP2;ratioP2
38264;SDS011;24062;47.480;8.768;2023-03-23T00:00:59;7.73;;;4.30;;
38264;SDS011;24062;47.480;8.768;2023-03-23T00:03:27;4.87;;;4.10;;
38264;SDS011;24062;47.480;8.768;2023-03-23T00:05:56;4.90;;;4.20;;
38264;SDS011;24062;47.480;8.768;2023-03-23T00:08:29;4.70;;;3.83;;
38264;SDS011;24062;47.480;8.768;2023-03-23T00:10:56;6.93;;;3.90;;
38264;SDS011;24062;47.480;8.768;2023-03-23T00:13:27;6.07;;;3.00;;
38264;SDS011;24062;47.480;8.768;2023-03-23T00:15:56;4.70;;;3.30;;
38264;SDS011;24062;47.480;8.768;2023-03-23T00:18:23;3.43;;;2.80;;
38264;SDS011;24062;47.480;8.768;2023-03-23T00:20:51;3.43;;;2.97;;
38264;SDS011;24062;47.480;8.768;2023-03-23T00:23:20;2.73;;;2.53;;
38264;SDS011;24062;47.480;8.768;2023-03-23T00:25:49;3.57;;;3.10;;
38264;SDS011;24062;47.480;8.768;2023-03-23T00:28:18;3.23;;;2.47;;
38264;SDS011;24062;47.480;8.768;2023-03-23T00:30:53;3.47;;;2.40;;
38264;SDS011;24062;47.480;8.768;2023-03-23T00:33:23;3.40;;;3.10;;
38264;SDS011;24062;47.480;8.768;2023-03-23T00:35:51;3.97;;;2.60;;
38264;SDS011;24062;47.480;8.768;2023-03-23T00:38:19;3.23;;;2.57;;
38264;SDS011;24062;47.480;8.768;2023-03-23T00:40:46;3.50;;;2.70;;
38264;SDS011;24062;47.480;8.768;2023-03-23T00:43:13;3.10;;;2.50;;
38264;SDS011;24062;47.480;8.768;2023-03-23T00:45:41;3.03;;;2.17;;
38264;SDS011;24062;47.480;8.768;2023-03-23T00:48:11;3.87;;;2.50;;
38264;SDS011;24062;47.480;8.768;2023-03-23T00:50:38;3.97;;;2.60;;
38264;SDS011;24062;47.480;8.768;2023-03-23T00:53:05;3.30;;;2.73;;
38264;SDS011;24062;47.480;8.768;2023-03-23T00:55:32;5.60;;;3.10;;
38264;SDS011;24062;47.480;8.768;2023-03-23T00:57:59;2.87;;;2.20;;
38264;SDS011;24062;47.480;8.768;2023-03-23T01:00:26;2.97;;;2.50;;
38264;SDS011;24062;47.480;8.768;2023-03-23T01:02:53;2.53;;;2.27;;
38264;SDS011;24062;47.480;8.768;2023-03-23T01:05:22;2.57;;;2.30;;
38264;SDS011;24062;47.480;8.768;2023-03-23T01:07:49;2.60;;;1.90;;
38264;SDS011;24062;47.480;8.768;2023-03-23T01:10:16;2.60;;;2.30;;
38264;SDS011;24062;47.480;8.768;2023-03-23T01:12:43;2.33;;;2.13;;
38264;SDS011;24062;47.480;8.768;2023-03-23T01:15:15;5.97;;;2.77;;
38264;SDS011;24062;47.480;8.768;2023-03-23T01:17:43;4.60;;;2.13;;
38264;SDS011;24062;47.480;8.768;2023-03-23T01:20:11;2.80;;;2.43;;
38264;SDS011;24062;47.480;8.768;2023-03-23T01:22:41;2.73;;;2.20;;
38264;SDS011;24062;47.480;8.768;2023-03-23T01:25:09;3.30;;;1.50;;
38264;SDS011;24062;47.480;8.768;2023-03-23T01:27:36;2.80;;;1.93;;
38264;SDS011;24062;47.480;8.768;2023-03-23T01:30:04;3.50;;;2.10;;
38264;SDS011;24062;47.480;8.768;2023-03-23T01:32:32;6.67;;;2.60;;
38264;SDS011;24062;47.480;8.768;2023-03-23T01:35:00;3.80;;;2.33;;
38264;SDS011;24062;47.480;8.768;2023-03-23T01:37:27;2.13;;;1.93;;
38264;SDS011;24062;47.480;8.768;2023-03-23T01:39:55;2.27;;;1.80;;
38264;SDS011;24062;47.480;8.768;2023-03-23T01:42:23;4.27;;;2.20;;
38264;SDS011;24062;47.480;8.768;2023-03-23T01:45:18;4.13;;;2.80;;
38264;SDS011;24062;47.480;8.768;2023-03-23T01:47:51;2.43;;;1.80;;
38264;SDS011;24062;47.480;8.768;2023-03-23T01:50:22;3.30;;;2.10;;
38264;SDS011;24062;47.480;8.768;2023-03-23T01:52:52;3.40;;;1.93;;
38264;SDS011;24062;47.480;8.768;2023-03-23T01:55:23;2.90;;;2.50;;
38264;SDS011;24062;47.480;8.768;2023-03-23T01:57:51;2.70;;;2.23;;
38264;SDS011;24062;47.480;8.768;2023-03-23T02:00:19;7.17;;;2.30;;
38264;SDS011;24062;47.480;8.768;2023-03-23T02:02:48;6.20;;;1.80;;
38264;SDS011;24062;47.480;8.768;2023-03-23T02:05:19;2.57;;;1.90;;
38264;SDS011;24062;47.480;8.768;2023-03-23T02:07:51;2.93;;;2.07;;
38264;SDS011;24062;47.480;8.768;2023-03-23T02:10:19;3.70;;;1.60;;
38264;SDS011;24062;47.480;8.768;2023-03-23T02:12:48;2.80;;;2.00;;
38264;SDS011;24062;47.480;8.768;2023-03-23T02:15:15;3.07;;;2.13;;
38264;SDS011;24062;47.480;8.768;2023-03-23T02:17:43;4.20;;;2.20;;
38264;SDS011;24062;47.480;8.768;2023-03-23T02:20:18;2.53;;;1.80;;
38264;SDS011;24062;47.480;8.768;2023-03-23T02:26:01;2.30;;;1.87;;
38264;SDS011;24062;47.480;8.768;2023-03-23T02:28:56;4.57;;;1.93;;
38264;SDS011;24062;47.480;8.768;2023-03-23T02:31:42;7.10;;;1.87;;
38264;SDS011;24062;47.480;8.768;2023-03-23T02:34:15;2.37;;;1.77;;
38264;SDS011;24062;47.480;8.768;2023-03-23T02:36:45;2.50;;;1.70;;
38264;SDS011;24062;47.480;8.768;2023-03-23T02:39:17;2.57;;;1.77;;
38264;SDS011;24062;47.480;8.768;2023-03-23T02:41:49;2.27;;;1.43;;
38264;SDS011;24062;47.480;8.768;2023-03-23T02:44:19;2.87;;;1.47;;
38264;SDS011;24062;47.480;8.768;2023-03-23T02:46:49;2.53;;;2.00;;
38264;SDS011;24062;47.480;8.768;2023-03-23T02:49:19;2.23;;;1.60;;
38264;SDS011;24062;47.480;8.768;2023-03-23T02:51:48;2.47;;;2.13;;
38264;SDS011;24062;47.480;8.768;2023-03-23T02:54:18;4.17;;;1.70;;
38264;SDS011;24062;47.480;8.768;2023-03-23T02:56:47;1.90;;;1.57;;
38264;SDS011;24062;47.480;8.768;2023-03-23T02:59:17;3.50;;;1.90;;
38264;SDS011;24062;47.480;8.768;2023-03-23T03:04:41;3.57;;;1.70;;
38264;SDS011;24062;47.480;8.768;2023-03-23T03:10:06;3.63;;;1.90;;
38264;SDS011;24062;47.480;8.768;2023-03-23T03:12:42;4.73;;;2.23;;
38264;SDS011;24062;47.480;8.768;2023-03-23T03:15:17;6.20;;;1.57;;
38264;SDS011;24062;47.480;8.768;2023-03-23T03:17:52;2.43;;;1.57;;
38264;SDS011;24062;47.480;8.768;2023-03-23T03:20:25;2.90;;;1.40;;
38264;SDS011;24062;47.480;8.768;2023-03-23T03:22:54;2.73;;;1.70;;
38264;SDS011;24062;47.480;8.768;2023-03-23T03:25:23;2.70;;;1.47;;
38264;SDS011;24062;47.480;8.768;2023-03-23T03:27:52;3.00;;;1.40;;
38264;SDS011;24062;47.480;8.768;2023-03-23T03:30:22;2.50;;;1.33;;
38264;SDS011;24062;47.480;8.768;2023-03-23T03:32:53;1.57;;;1.20;;
38264;SDS011;24062;47.480;8.768;2023-03-23T03:35:20;2.13;;;1.37;;
38264;SDS011;24062;47.480;8.768;2023-03-23T03:37:50;3.67;;;1.60;;
38264;SDS011;24062;47.480;8.768;2023-03-23T03:40:17;4.07;;;1.30;;
38264;SDS011;24062;47.480;8.768;2023-03-23T03:42:46;2.83;;;1.47;;
38264;SDS011;24062;47.480;8.768;2023-03-23T03:45:14;2.67;;;1.63;;
38264;SDS011;24062;47.480;8.768;2023-03-23T03:47:42;2.00;;;1.23;;
38264;SDS011;24062;47.480;8.768;2023-03-23T03:50:09;2.03;;;1.30;;
38264;SDS011;24062;47.480;8.768;2023-03-23T03:52:38;2.40;;;1.30;;
38264;SDS011;24062;47.480;8.768;2023-03-23T03:55:07;3.60;;;1.40;;
38264;SDS011;24062;47.480;8.768;2023-03-23T03:57:35;1.77;;;1.03;;
38264;SDS011;24062;47.480;8.768;2023-03-23T04:00:03;2.80;;;1.60;;
38264;SDS011;24062;47.480;8.768;2023-03-23T04:02:39;3.70;;;1.30;;
38264;SDS011;24062;47.480;8.768;2023-03-23T04:05:07;2.13;;;1.67;;
38264;SDS011;24062;47.480;8.768;2023-03-23T04:07:35;3.60;;;1.47;;
38264;SDS011;24062;47.480;8.768;2023-03-23T04:10:04;1.60;;;0.90;;
38264;SDS011;24062;47.480;8.768;2023-03-23T04:12:34;1.73;;;1.20;;
38264;SDS011;24062;47.480;8.768;2023-03-23T04:15:02;1.50;;;1.00;;
38264;SDS011;24062;47.480;8.768;2023-03-23T04:17:29;3.27;;;1.23;;
38264;SDS011;24062;47.480;8.768;2023-03-23T04:19:57;1.80;;;1.13;;
38264;SDS011;24062;47.480;8.768;2023-03-23T04:22:36;3.10;;;1.10;;
38264;SDS011;24062;47.480;8.768;2023-03-23T04:25:03;3.37;;;1.60;;
38264;SDS011;24062;47.480;8.768;2023-03-23T04:27:33;3.60;;;1.47;;
38264;SDS011;24062;47.480;8.768;2023-03-23T04:30:01;2.17;;;1.17;;
38264;SDS011;24062;47.480;8.768;2023-03-23T04:32:30;2.53;;;1.33;;
38264;SDS011;24062;47.480;8.768;2023-03-23T04:34:57;3.40;;;1.50;;
38264;SDS011;24062;47.480;8.768;2023-03-23T04:37:25;2.10;;;1.20;;
38264;SDS011;24062;47.480;8.768;2023-03-23T04:39:54;1.90;;;1.27;;
38264;SDS011;24062;47.480;8.768;2023-03-23T04:42:25;1.60;;;0.97;;
38264;SDS011;24062;47.480;8.768;2023-03-23T04:44:54;2.47;;;1.43;;
38264;SDS011;24062;47.480;8.768;2023-03-23T04:47:22;3.00;;;1.53;;
38264;SDS011;24062;47.480;8.768;2023-03-23T04:49:49;1.80;;;1.07;;
38264;SDS011;24062;47.480;8.768;2023-03-23T04:52:17;1.67;;;1.10;;
38264;SDS011;24062;47.480;8.768;2023-03-23T04:54:45;1.77;;;1.17;;
38264;SDS011;24062;47.480;8.768;2023-03-23T04:57:12;1.80;;;1.27;;
38264;SDS011;24062;47.480;8.768;2023-03-23T04:59:40;1.77;;;1.10;;
38264;SDS011;24062;47.480;8.768;2023-03-23T05:02:09;3.00;;;1.20;;
38264;SDS011;24062;47.480;8.768;2023-03-23T05:04:38;3.30;;;0.90;;
38264;SDS011;24062;47.480;8.768;2023-03-23T05:07:06;2.00;;;1.37;;
38264;SDS011;24062;47.480;8.768;2023-03-23T05:09:33;1.77;;;0.90;;
38264;SDS011;24062;47.480;8.768;2023-03-23T05:12:03;1.60;;;1.13;;
38264;SDS011;24062;47.480;8.768;2023-03-23T05:14:31;2.00;;;1.10;;
38264;SDS011;24062;47.480;8.768;2023-03-23T05:16:58;2.00;;;1.10;;
38264;SDS011;24062;47.480;8.768;2023-03-23T05:19:26;2.80;;;1.40;;
38264;SDS011;24062;47.480;8.768;2023-03-23T05:21:56;1.77;;;1.23;;
38264;SDS011;24062;47.480;8.768;2023-03-23T05:24:27;5.17;;;1.47;;
38264;SDS011;24062;47.480;8.768;2023-03-23T05:26:56;3.63;;;1.40;;
38264;SDS011;24062;47.480;8.768;2023-03-23T05:29:23;1.87;;;1.10;;
38264;SDS011;24062;47.480;8.768;2023-03-23T05:31:50;3.90;;;1.40;;
38264;SDS011;24062;47.480;8.768;2023-03-23T05:34:20;2.00;;;1.40;;
38264;SDS011;24062;47.480;8.768;2023-03-23T05:36:49;1.70;;;1.10;;
38264;SDS011;24062;47.480;8.768;2023-03-23T05:39:18;4.80;;;1.20;;
38264;SDS011;24062;47.480;8.768;2023-03-23T05:41:45;3.60;;;1.50;;
38264;SDS011;24062;47.480;8.768;2023-03-23T05:44:13;1.90;;;1.37;;
38264;SDS011;24062;47.480;8.768;2023-03-23T05:46:40;2.03;;;0.90;;
38264;SDS011;24062;47.480;8.768;2023-03-23T05:49:07;2.10;;;1.10;;
38264;SDS011;24062;47.480;8.768;2023-03-23T05:51:34;3.33;;;1.30;;
38264;SDS011;24062;47.480;8.768;2023-03-23T05:54:02;2.10;;;1.13;;
38264;SDS011;24062;47.480;8.768;2023-03-23T05:56:29;1.87;;;1.17;;
38264;SDS011;24062;47.480;8.768;2023-03-23T05:58:56;4.23;;;1.10;;
38264;SDS011;24062;47.480;8.768;2023-03-23T06:01:24;2.70;;;1.50;;
38264;SDS011;24062;47.480;8.768;2023-03-23T06:03:51;1.70;;;1.30;;
38264;SDS011;24062;47.480;8.768;2023-03-23T06:06:19;5.20;;;1.23;;
38264;SDS011;24062;47.480;8.768;2023-03-23T06:08:46;2.50;;;1.20;;
38264;SDS011;24062;47.480;8.768;2023-03-23T06:11:16;2.97;;;1.23;;
38264;SDS011;24062;47.480;8.768;2023-03-23T06:13:43;2.53;;;1.40;;
38264;SDS011;24062;47.480;8.768;2023-03-23T06:16:10;2.47;;;1.57;;
38264;SDS011;24062;47.480;8.768;2023-03-23T06:18:37;2.73;;;1.00;;
38264;SDS011;24062;47.480;8.768;2023-03-23T06:21:06;2.13;;;1.20;;
38264;SDS011;24062;47.480;8.768;2023-03-23T06:23:33;4.20;;;1.20;;
38264;SDS011;24062;47.480;8.768;2023-03-23T06:26:00;1.80;;;1.10;;
38264;SDS011;24062;47.480;8.768;2023-03-23T06:28:31;7.43;;;0.93;;
38264;SDS011;24062;47.480;8.768;2023-03-23T06:30:59;6.90;;;1.00;;
38264;SDS011;24062;47.480;8.768;2023-03-23T06:33:27;2.00;;;1.20;;
38264;SDS011;24062;47.480;8.768;2023-03-23T06:35:54;4.00;;;1.43;;
38264;SDS011;24062;47.480;8.768;2023-03-23T06:38:22;5.27;;;1.33;;
38264;SDS011;24062;47.480;8.768;2023-03-23T06:40:51;8.63;;;1.90;;
38264;SDS011;24062;47.480;8.768;2023-03-23T06:43:18;10.30;;;1.47;;
38264;SDS011;24062;47.480;8.768;2023-03-23T06:45:46;3.00;;;1.20;;
38264;SDS011;24062;47.480;8.768;2023-03-23T06:48:14;2.90;;;1.00;;
38264;SDS011;24062;47.480;8.768;2023-03-23T06:50:42;2.73;;;1.70;;
38264;SDS011;24062;47.480;8.768;2023-03-23T06:53:09;2.50;;;1.23;;
38264;SDS011;24062;47.480;8.768;2023-03-23T06:55:36;3.50;;;1.30;;
38264;SDS011;24062;47.480;8.768;2023-03-23T06:58:03;8.07;;;1.43;;
38264;SDS011;24062;47.480;8.768;2023-03-23T07:00:31;3.60;;;1.30;;
38264;SDS011;24062;47.480;8.768;2023-03-23T07:03:00;81.40;;;10.07;;
38264;SDS011;24062;47.480;8.768;2023-03-23T07:05:27;11.03;;;1.87;;
38264;SDS011;24062;47.480;8.768;2023-03-23T07:07:55;2.50;;;1.00;;
38264;SDS011;24062;47.480;8.768;2023-03-23T07:10:22;2.20;;;1.07;;
38264;SDS011;24062;47.480;8.768;2023-03-23T07:12:49;2.20;;;1.23;;
38264;SDS011;24062;47.480;8.768;2023-03-23T07:15:16;1.67;;;0.97;;
38264;SDS011;24062;47.480;8.768;2023-03-23T07:17:44;2.67;;;1.17;;
38264;SDS011;24062;47.480;8.768;2023-03-23T07:20:13;1.90;;;1.30;;
38264;SDS011;24062;47.480;8.768;2023-03-23T07:22:40;2.53;;;1.43;;
38264;SDS011;24062;47.480;8.768;2023-03-23T07:25:07;1.73;;;1.00;;
38264;SDS011;24062;47.480;8.768;2023-03-23T07:27:35;3.63;;;1.07;;
38264;SDS011;24062;47.480;8.768;2023-03-23T07:30:03;3.60;;;1.00;;
38264;SDS011;24062;47.480;8.768;2023-03-23T07:32:30;3.03;;;1.10;;
38264;SDS011;24062;47.480;8.768;2023-03-23T07:34:57;2.97;;;1.20;;
38264;SDS011;24062;47.480;8.768;2023-03-23T07:37:26;3.07;;;1.40;;
38264;SDS011;24062;47.480;8.768;2023-03-23T07:39:53;1.57;;;1.03;;
38264;SDS011;24062;47.480;8.768;2023-03-23T07:42:20;2.63;;;1.13;;
38264;SDS011;24062;47.480;8.768;2023-03-23T07:44:47;84.97;;;7.80;;
38264;SDS011;24062;47.480;8.768;2023-03-23T07:47:14;9.33;;;2.30;;
38264;SDS011;24062;47.480;8.768;2023-03-23T07:49:42;58.20;;;5.97;;
38264;SDS011;24062;47.480;8.768;2023-03-23T07:52:10;5.30;;;1.67;;
38264;SDS011;24062;47.480;8.768;2023-03-23T07:54:39;9.97;;;1.57;;
38264;SDS011;24062;47.480;8.768;2023-03-23T07:57:06;1.67;;;1.17;;
38264;SDS011;24062;47.480;8.768;2023-03-23T07:59:33;7.43;;;1.30;;
38264;SDS011;24062;47.480;8.768;2023-03-23T08:02:01;4.60;;;1.50;;
38264;SDS011;24062;47.480;8.768;2023-03-23T08:04:28;11.73;;;1.63;;
38264;SDS011;24062;47.480;8.768;2023-03-23T08:07:01;2.13;;;1.20;;
38264;SDS011;24062;47.480;8.768;2023-03-23T08:09:29;3.10;;;1.17;;
38264;SDS011;24062;47.480;8.768;2023-03-23T08:11:57;2.03;;;1.13;;
38264;SDS011;24062;47.480;8.768;2023-03-23T08:14:24;2.00;;;1.20;;
38264;SDS011;24062;47.480;8.768;2023-03-23T08:16:52;2.77;;;1.50;;
38264;SDS011;24062;47.480;8.768;2023-03-23T08:19:20;2.20;;;1.10;;
38264;SDS011;24062;47.480;8.768;2023-03-23T08:21:47;2.40;;;1.13;;
38264;SDS011;24062;47.480;8.768;2023-03-23T08:24:14;2.50;;;1.40;;
38264;SDS011;24062;47.480;8.768;2023-03-23T08:26:41;3.33;;;1.20;;
38264;SDS011;24062;47.480;8.768;2023-03-23T08:29:10;7.40;;;1.20;;
38264;SDS011;24062;47.480;8.768;2023-03-23T08:31:37;3.77;;;1.40;;
38264;SDS011;24062;47.480;8.768;2023-03-23T08:34:04;2.27;;;1.13;;
38264;SDS011;24062;47.480;8.768;2023-03-23T08:36:31;2.83;;;1.60;;
38264;SDS011;24062;47.480;8.768;2023-03-23T08:38:59;3.77;;;1.40;;
38264;SDS011;24062;47.480;8.768;2023-03-23T08:41:26;2.63;;;1.30;;
38264;SDS011;24062;47.480;8.768;2023-03-23T08:43:53;2.10;;;1.10;;
38264;SDS011;24062;47.480;8.768;2023-03-23T08:46:21;1.70;;;1.07;;
38264;SDS011;24062;47.480;8.768;2023-03-23T08:48:48;3.63;;;0.97;;
38264;SDS011;24062;47.480;8.768;2023-03-23T08:51:16;1.77;;;0.97;;
38264;SDS011;24062;47.480;8.768;2023-03-23T08:53:43;2.47;;;1.43;;
38264;SDS011;24062;47.480;8.768;2023-03-23T08:56:10;3.20;;;1.10;;
38264;SDS011;24062;47.480;8.768;2023-03-23T08:58:38;7.30;;;1.67;;
38264;SDS011;24062;47.480;8.768;2023-03-23T09:01:06;8.20;;;2.33;;
38264;SDS011;24062;47.480;8.768;2023-03-23T09:03:35;3.50;;;1.10;;
38264;SDS011;24062;47.480;8.768;2023-03-23T09:06:04;1.70;;;1.00;;
38264;SDS011;24062;47.480;8.768;2023-03-23T09:08:32;1.70;;;1.00;;
38264;SDS011;24062;47.480;8.768;2023-03-23T09:11:00;2.20;;;1.20;;
38264;SDS011;24062;47.480;8.768;2023-03-23T09:13:28;2.10;;;1.17;;
38264;SDS011;24062;47.480;8.768;2023-03-23T09:15:56;3.50;;;1.53;;
38264;SDS011;24062;47.480;8.768;2023-03-23T09:18:23;3.40;;;1.10;;
38264;SDS011;24062;47.480;8.768;2023-03-23T09:20:52;1.60;;;0.87;;
38264;SDS011;24062;47.480;8.768;2023-03-23T09:23:20;3.27;;;1.20;;
38264;SDS011;24062;47.480;8.768;2023-03-23T09:25:47;3.97;;;1.20;;
38264;SDS011;24062;47.480;8.768;2023-03-23T09:28:14;3.20;;;1.10;;
38264;SDS011;24062;47.480;8.768;2023-03-23T09:30:41;2.00;;;1.30;;
38264;SDS011;24062;47.480;8.768;2023-03-23T09:33:09;4.07;;;1.30;;
38264;SDS011;24062;47.480;8.768;2023-03-23T09:35:36;1.80;;;1.20;;
38264;SDS011;24062;47.480;8.768;2023-03-23T09:38:05;4.50;;;1.70;;
38264;SDS011;24062;47.480;8.768;2023-03-23T09:40:39;4.63;;;1.70;;
38264;SDS011;24062;47.480;8.768;2023-03-23T09:43:22;2.10;;;1.20;;
38264;SDS011;24062;47.480;8.768;2023-03-23T09:46:00;4.30;;;1.30;;
38264;SDS011;24062;47.480;8.768;2023-03-23T09:48:40;4.67;;;1.40;;
38264;SDS011;24062;47.480;8.768;2023-03-23T09:51:17;2.37;;;1.03;;
38264;SDS011;24062;47.480;8.768;2023-03-23T09:53:53;6.40;;;1.57;;
38264;SDS011;24062;47.480;8.768;2023-03-23T09:56:22;2.70;;;1.23;;
38264;SDS011;24062;47.480;8.768;2023-03-23T09:58:53;1.80;;;1.00;;
38264;SDS011;24062;47.480;8.768;2023-03-23T10:01:25;3.10;;;1.10;;
38264;SDS011;24062;47.480;8.768;2023-03-23T10:03:58;1.90;;;1.10;;
38264;SDS011;24062;47.480;8.768;2023-03-23T10:06:29;2.13;;;1.30;;
38264;SDS011;24062;47.480;8.768;2023-03-23T10:08:58;2.67;;;1.30;;
38264;SDS011;24062;47.480;8.768;2023-03-23T10:11:32;2.70;;;1.43;;
38264;SDS011;24062;47.480;8.768;2023-03-23T10:14:08;3.33;;;1.50;;
38264;SDS011;24062;47.480;8.768;2023-03-23T10:16:55;2.80;;;1.17;;
38264;SDS011;24062;47.480;8.768;2023-03-23T10:19:29;4.73;;;1.33;;
38264;SDS011;24062;47.480;8.768;2023-03-23T10:22:02;3.20;;;1.60;;
38264;SDS011;24062;47.480;8.768;2023-03-23T10:24:35;5.10;;;1.33;;
38264;SDS011;24062;47.480;8.768;2023-03-23T10:27:10;11.27;;;1.50;;
38264;SDS011;24062;47.480;8.768;2023-03-23T10:29:47;4.70;;;1.43;;
38264;SDS011;24062;47.480;8.768;2023-03-23T10:32:20;2.80;;;1.20;;
38264;SDS011;24062;47.480;8.768;2023-03-23T10:34:50;1.80;;;1.23;;
38264;SDS011;24062;47.480;8.768;2023-03-23T10:37:21;5.70;;;1.10;;
38264;SDS011;24062;47.480;8.768;2023-03-23T10:39:53;2.33;;;1.30;;
38264;SDS011;24062;47.480;8.768;2023-03-23T10:42:23;4.13;;;1.30;;
38264;SDS011;24062;47.480;8.768;2023-03-23T10:44:51;2.30;;;1.30;;
38264;SDS011;24062;47.480;8.768;2023-03-23T10:47:18;2.80;;;1.30;;
38264;SDS011;24062;47.480;8.768;2023-03-23T10:49:47;4.60;;;1.60;;
38264;SDS011;24062;47.480;8.768;2023-03-23T10:52:25;4.80;;;1.10;;
38264;SDS011;24062;47.480;8.768;2023-03-23T10:54:57;2.20;;;1.30;;
38264;SDS011;24062;47.480;8.768;2023-03-23T10:57:29;3.10;;;1.00;;
38264;SDS011;24062;47.480;8.768;2023-03-23T10:59:59;4.63;;;1.20;;
38264;SDS011;24062;47.480;8.768;2023-03-23T11:02:31;4.40;;;1.50;;
38264;SDS011;24062;47.480;8.768;2023-03-23T11:05:04;2.83;;;1.30;;
38264;SDS011;24062;47.480;8.768;2023-03-23T11:07:38;2.53;;;1.27;;
38264;SDS011;24062;47.480;8.768;2023-03-23T11:10:15;2.53;;;1.27;;
38264;SDS011;24062;47.480;8.768;2023-03-23T11:12:46;1.80;;;1.20;;
38264;SDS011;24062;47.480;8.768;2023-03-23T11:15:27;2.20;;;1.50;;
38264;SDS011;24062;47.480;8.768;2023-03-23T11:17:56;2.80;;;1.07;;
38264;SDS011;24062;47.480;8.768;2023-03-23T11:20:29;7.40;;;1.33;;
38264;SDS011;24062;47.480;8.768;2023-03-23T11:23:07;2.00;;;1.20;;
38264;SDS011;24062;47.480;8.768;2023-03-23T11:25:56;2.67;;;1.30;;
38264;SDS011;24062;47.480;8.768;2023-03-23T11:28:26;1.90;;;1.23;;
38264;SDS011;24062;47.480;8.768;2023-03-23T11:30:56;3.60;;;1.20;;
38264;SDS011;24062;47.480;8.768;2023-03-23T11:33:28;2.43;;;1.30;;
38264;SDS011;24062;47.480;8.768;2023-03-23T11:35:56;1.87;;;0.93;;
38264;SDS011;24062;47.480;8.768;2023-03-23T11:38:23;9.47;;;1.70;;
38264;SDS011;24062;47.480;8.768;2023-03-23T11:40:53;3.47;;;1.43;;
38264;SDS011;24062;47.480;8.768;2023-03-23T11:43:22;3.17;;;1.53;;
38264;SDS011;24062;47.480;8.768;2023-03-23T11:45:54;2.50;;;1.10;;
38264;SDS011;24062;47.480;8.768;2023-03-23T11:48:29;2.00;;;1.33;;
38264;SDS011;24062;47.480;8.768;2023-03-23T11:51:02;1.50;;;0.97;;
38264;SDS011;24062;47.480;8.768;2023-03-23T11:53:37;2.63;;;1.00;;
38264;SDS011;24062;47.480;8.768;2023-03-23T11:56:14;2.20;;;1.30;;
38264;SDS011;24062;47.480;8.768;2023-03-23T11:58:49;2.60;;;1.13;;
38264;SDS011;24062;47.480;8.768;2023-03-23T12:01:21;6.23;;;1.40;;
38264;SDS011;24062;47.480;8.768;2023-03-23T12:03:58;2.37;;;1.43;;
38264;SDS011;24062;47.480;8.768;2023-03-23T12:06:38;9.20;;;1.70;;
38264;SDS011;24062;47.480;8.768;2023-03-23T12:09:17;2.83;;;1.27;;
38264;SDS011;24062;47.480;8.768;2023-03-23T12:11:55;3.53;;;1.47;;
38264;SDS011;24062;47.480;8.768;2023-03-23T12:14:33;8.07;;;1.80;;
38264;SDS011;24062;47.480;8.768;2023-03-23T12:17:11;2.50;;;1.30;;
38264;SDS011;24062;47.480;8.768;2023-03-23T12:19:47;2.57;;;1.37;;
38264;SDS011;24062;47.480;8.768;2023-03-23T12:22:26;4.10;;;1.30;;
38264;SDS011;24062;47.480;8.768;2023-03-23T12:25:08;11.77;;;2.60;;
38264;SDS011;24062;47.480;8.768;2023-03-23T12:27:46;3.70;;;1.20;;
38264;SDS011;24062;47.480;8.768;2023-03-23T12:30:20;4.90;;;1.30;;
38264;SDS011;24062;47.480;8.768;2023-03-23T12:32:59;4.10;;;1.50;;
38264;SDS011;24062;47.480;8.768;2023-03-23T12:35:49;4.40;;;1.50;;
38264;SDS011;24062;47.480;8.768;2023-03-23T12:41:26;3.23;;;1.00;;
38264;SDS011;24062;47.480;8.768;2023-03-23T12:43:57;2.10;;;1.10;;
38264;SDS011;24062;47.480;8.768;2023-03-23T12:46:37;2.73;;;1.10;;
38264;SDS011;24062;47.480;8.768;2023-03-23T12:49:16;2.80;;;1.30;;
38264;SDS011;24062;47.480;8.768;2023-03-23T12:51:48;2.77;;;1.50;;
38264;SDS011;24062;47.480;8.768;2023-03-23T12:54:22;2.30;;;1.27;;
38264;SDS011;24062;47.480;8.768;2023-03-23T12:56:54;2.37;;;1.30;;
38264;SDS011;24062;47.480;8.768;2023-03-23T12:59:28;2.17;;;1.20;;
38264;SDS011;24062;47.480;8.768;2023-03-23T13:02:03;5.50;;;1.10;;
38264;SDS011;24062;47.480;8.768;2023-03-23T13:04:37;3.00;;;1.13;;
38264;SDS011;24062;47.480;8.768;2023-03-23T13:07:10;3.53;;;1.33;;
38264;SDS011;24062;47.480;8.768;2023-03-23T13:09:45;2.13;;;1.00;;
38264;SDS011;24062;47.480;8.768;2023-03-23T13:12:16;2.57;;;1.50;;
38264;SDS011;24062;47.480;8.768;2023-03-23T13:14:48;2.00;;;1.40;;
38264;SDS011;24062;47.480;8.768;2023-03-23T13:17:28;6.80;;;1.60;;
38264;SDS011;24062;47.480;8.768;2023-03-23T13:23:11;2.67;;;1.27;;
38264;SDS011;24062;47.480;8.768;2023-03-23T13:25:52;3.30;;;1.27;;
38264;SDS011;24062;47.480;8.768;2023-03-23T13:28:24;3.57;;;1.60;;
38264;SDS011;24062;47.480;8.768;2023-03-23T13:30:56;4.80;;;1.90;;
38264;SDS011;24062;47.480;8.768;2023-03-23T13:33:29;1.73;;;1.20;;
38264;SDS011;24062;47.480;8.768;2023-03-23T13:36:02;3.63;;;1.13;;
38264;SDS011;24062;47.480;8.768;2023-03-23T13:38:44;4.37;;;1.60;;
38264;SDS011;24062;47.480;8.768;2023-03-23T13:41:14;2.83;;;1.13;;
38264;SDS011;24062;47.480;8.768;2023-03-23T13:43:43;2.20;;;1.47;;
38264;SDS011;24062;47.480;8.768;2023-03-23T13:46:12;5.77;;;1.17;;
38264;SDS011;24062;47.480;8.768;2023-03-23T13:49:04;2.23;;;1.40;;
38264;SDS011;24062;47.480;8.768;2023-03-23T13:51:47;32.30;;;5.03;;
38264;SDS011;24062;47.480;8.768;2023-03-23T13:54:24;18.50;;;3.23;;
38264;SDS011;24062;47.480;8.768;2023-03-23T13:56:57;57.33;;;5.60;;
38264;SDS011;24062;47.480;8.768;2023-03-23T13:59:33;172.87;;;21.20;;
38264;SDS011;24062;47.480;8.768;2023-03-23T14:04:56;173.57;;;21.50;;
38264;SDS011;24062;47.480;8.768;2023-03-23T14:10:18;31.50;;;6.07;;
38264;SDS011;24062;47.480;8.768;2023-03-23T14:12:45;65.73;;;8.80;;
38264;SDS011;24062;47.480;8.768;2023-03-23T14:15:16;112.70;;;12.67;;
38264;SDS011;24062;47.480;8.768;2023-03-23T14:17:43;8.33;;;4.10;;
38264;SDS011;24062;47.480;8.768;2023-03-23T14:22:47;14.43;;;2.67;;
38264;SDS011;24062;47.480;8.768;2023-03-23T14:25:21;8.77;;;2.33;;
38264;SDS011;24062;47.480;8.768;2023-03-23T14:27:52;8.40;;;2.60;;
38264;SDS011;24062;47.480;8.768;2023-03-23T14:30:21;29.07;;;4.53;;
38264;SDS011;24062;47.480;8.768;2023-03-23T14:32:50;4.30;;;1.63;;
38264;SDS011;24062;47.480;8.768;2023-03-23T14:35:22;10.00;;;2.40;;
38264;SDS011;24062;47.480;8.768;2023-03-23T14:37:52;2.50;;;1.10;;
38264;SDS011;24062;47.480;8.768;2023-03-23T14:40:19;13.67;;;2.77;;
38264;SDS011;24062;47.480;8.768;2023-03-23T14:42:46;2.33;;;1.40;;
38264;SDS011;24062;47.480;8.768;2023-03-23T14:45:17;2.03;;;1.37;;
38264;SDS011;24062;47.480;8.768;2023-03-23T14:47:46;4.87;;;1.57;;
38264;SDS011;24062;47.480;8.768;2023-03-23T14:50:23;3.40;;;1.23;;
38264;SDS011;24062;47.480;8.768;2023-03-23T14:52:56;5.93;;;1.60;;
38264;SDS011;24062;47.480;8.768;2023-03-23T14:55:25;2.40;;;1.37;;
38264;SDS011;24062;47.480;8.768;2023-03-23T14:57:56;2.10;;;1.33;;
38264;SDS011;24062;47.480;8.768;2023-03-23T15:00:33;4.53;;;1.60;;
38264;SDS011;24062;47.480;8.768;2023-03-23T15:03:05;3.73;;;1.30;;
38264;SDS011;24062;47.480;8.768;2023-03-23T15:05:43;2.47;;;1.63;;
38264;SDS011;24062;47.480;8.768;2023-03-23T15:08:14;1.80;;;1.00;;
38264;SDS011;24062;47.480;8.768;2023-03-23T15:10:50;3.77;;;1.57;;
38264;SDS011;24062;47.480;8.768;2023-03-23T15:13:19;3.33;;;1.40;;
38264;SDS011;24062;47.480;8.768;2023-03-23T15:15:46;3.00;;;1.40;;
38264;SDS011;24062;47.480;8.768;2023-03-23T15:18:20;2.13;;;1.30;;
38264;SDS011;24062;47.480;8.768;2023-03-23T15:20:57;1.60;;;1.10;;
38264;SDS011;24062;47.480;8.768;2023-03-23T15:23:27;1.93;;;1.10;;
38264;SDS011;24062;47.480;8.768;2023-03-23T15:25:55;2.40;;;1.20;;
38264;SDS011;24062;47.480;8.768;2023-03-23T15:28:27;2.47;;;1.27;;